createdAt,value
2023-01-13T00:01:26.322Z,1.13
2023-01-13T00:03:52.974Z,0.95
2023-01-13T00:06:21.905Z,0.98
2023-01-13T00:08:50.132Z,0.70
2023-01-13T00:11:16.703Z,0.95
2023-01-13T00:13:43.264Z,0.80
2023-01-13T00:16:18.338Z,0.82
2023-01-13T00:18:45.111Z,0.88
2023-01-13T00:21:16.606Z,0.55
2023-01-13T00:23:43.811Z,0.73
2023-01-13T00:26:12.723Z,0.77
2023-01-13T00:28:39.660Z,1.00
2023-01-13T00:31:14.563Z,1.05
2023-01-13T00:33:41.217Z,1.02
2023-01-13T00:36:09.280Z,1.20
2023-01-13T00:38:36.697Z,1.40
2023-01-13T00:41:08.263Z,1.67
2023-01-13T00:43:36.167Z,1.23
2023-01-13T00:46:06.809Z,1.52
2023-01-13T00:48:33.794Z,1.48
2023-01-13T00:51:05.897Z,1.20
2023-01-13T00:53:38.856Z,1.40
2023-01-13T00:56:08.084Z,1.40
2023-01-13T00:58:35.779Z,2.05
2023-01-13T01:01:04.851Z,1.10
2023-01-13T01:03:31.753Z,1.85
2023-01-13T01:06:07.311Z,1.63
2023-01-13T01:08:34.854Z,1.70
2023-01-13T01:11:15.605Z,1.20
2023-01-13T01:13:44.128Z,1.30
2023-01-13T01:16:13.363Z,1.33
2023-01-13T01:18:42.385Z,1.55
2023-01-13T01:21:09.636Z,1.55
2023-01-13T01:23:37.058Z,1.42
2023-01-13T01:26:09.131Z,2.33
2023-01-13T01:28:35.673Z,1.58
2023-01-13T01:31:10.902Z,1.50
2023-01-13T01:33:37.512Z,2.40
2023-01-13T01:36:05.027Z,1.33
2023-01-13T01:38:31.577Z,1.35
2023-01-13T01:40:58.611Z,1.83
2023-01-13T01:44:06.018Z,1.40
2023-01-13T01:46:42.503Z,1.65
2023-01-13T01:49:17.784Z,2.42
2023-01-13T01:51:47.942Z,1.27
2023-01-13T01:54:20.960Z,2.00
2023-01-13T01:56:47.864Z,2.15
2023-01-13T01:59:14.624Z,2.58
2023-01-13T02:01:41.762Z,1.48
2023-01-13T02:04:15.524Z,1.52
2023-01-13T02:06:43.208Z,1.52
2023-01-13T02:09:10.190Z,1.98
2023-01-13T02:11:55.984Z,1.75
2023-01-13T02:14:25.402Z,1.95
2023-01-13T02:17:29.276Z,1.45
2023-01-13T02:20:17.384Z,1.65
2023-01-13T02:22:58.707Z,2.13
2023-01-13T02:25:41.453Z,1.85
2023-01-13T02:28:32.951Z,2.03
2023-01-13T02:31:24.131Z,2.65
2023-01-13T02:33:55.324Z,1.95
2023-01-13T02:36:36.043Z,2.28
2023-01-13T02:39:20.855Z,2.35
2023-01-13T02:42:27.475Z,2.85
2023-01-13T02:45:17.658Z,3.50
2023-01-13T02:47:46.441Z,3.40
2023-01-13T02:50:17.603Z,2.78
2023-01-13T02:52:51.323Z,3.10
2023-01-13T02:55:21.086Z,2.55
2023-01-13T02:57:48.517Z,2.70
2023-01-13T03:00:16.518Z,2.90
2023-01-13T03:02:42.971Z,2.72
2023-01-13T03:05:13.968Z,3.35
2023-01-13T03:07:43.272Z,3.10
2023-01-13T03:10:19.740Z,3.00
2023-01-13T03:13:01.914Z,2.15
2023-01-13T03:15:36.944Z,2.42
2023-01-13T03:18:25.472Z,2.53
2023-01-13T03:21:04.574Z,1.92
2023-01-13T03:23:37.924Z,4.35
2023-01-13T03:26:23.226Z,4.18
2023-01-13T03:28:54.373Z,2.42
2023-01-13T03:31:25.899Z,3.15
2023-01-13T03:33:56.364Z,2.88
2023-01-13T03:36:25.724Z,2.22
2023-01-13T03:38:54.812Z,2.15
2023-01-13T03:41:34.689Z,2.35
2023-01-13T03:44:23.852Z,2.17
2023-01-13T03:47:11.063Z,1.95
2023-01-13T03:50:08.234Z,2.55
2023-01-13T03:52:37.591Z,1.75
2023-01-13T03:55:09.530Z,2.03
2023-01-13T03:57:41.385Z,1.98
2023-01-13T04:00:10.059Z,3.58
2023-01-13T04:02:43.857Z,1.77
2023-01-13T04:05:10.639Z,2.78
2023-01-13T04:07:42.863Z,2.17
2023-01-13T04:12:59.665Z,2.15
2023-01-13T04:15:29.879Z,2.10
2023-01-13T04:18:15.399Z,2.40
2023-01-13T04:20:43.279Z,2.20
2023-01-13T04:23:09.771Z,2.60
2023-01-13T04:25:36.506Z,1.88
2023-01-13T04:28:02.956Z,1.85
2023-01-13T04:30:29.314Z,1.70
2023-01-13T04:32:55.687Z,1.75
2023-01-13T04:35:22.042Z,1.60
2023-01-13T04:37:48.489Z,1.95
2023-01-13T04:40:15.025Z,2.47
2023-01-13T04:42:43.809Z,2.78
2023-01-13T04:45:10.595Z,2.00
2023-01-13T04:47:37.358Z,2.65
2023-01-13T04:50:04.113Z,1.85
2023-01-13T04:52:30.556Z,1.88
2023-01-13T04:54:57.617Z,2.00
2023-01-13T04:57:23.997Z,2.47
2023-01-13T04:59:50.406Z,2.47
2023-01-13T05:02:19.816Z,1.88
2023-01-13T05:04:47.331Z,2.20
2023-01-13T05:07:14.982Z,2.10
2023-01-13T05:09:41.384Z,1.90
2023-01-13T05:12:27.885Z,2.05
2023-01-13T05:15:12.737Z,2.25
2023-01-13T05:17:39.599Z,2.22
2023-01-13T05:20:06.946Z,2.13
2023-01-13T05:22:51.896Z,2.15
2023-01-13T05:25:27.987Z,2.60
2023-01-13T05:27:58.934Z,2.47
2023-01-13T05:30:31.157Z,2.17
2023-01-13T05:35:24.174Z,3.42
2023-01-13T05:37:50.621Z,2.53
2023-01-13T05:40:37.165Z,2.88
2023-01-13T05:43:19.742Z,2.60
2023-01-13T05:46:09.552Z,3.00
2023-01-13T05:48:38.312Z,2.55
2023-01-13T05:51:06.656Z,3.50
2023-01-13T05:53:33.995Z,2.78
2023-01-13T05:56:00.435Z,2.60
2023-01-13T05:58:27.664Z,2.38
2023-01-13T06:00:59.827Z,2.15
2023-01-13T06:05:58.393Z,2.35
2023-01-13T06:10:51.221Z,2.35
2023-01-13T06:13:17.610Z,2.55
2023-01-13T06:15:44.223Z,2.20
2023-01-13T06:18:10.696Z,1.60
2023-01-13T06:20:37.323Z,2.80
2023-01-13T06:23:03.757Z,3.03
2023-01-13T06:25:30.124Z,2.70
2023-01-13T06:27:58.906Z,2.75
2023-01-13T06:30:27.906Z,2.72
2023-01-13T06:32:55.728Z,2.20
2023-01-13T06:35:26.841Z,2.85
2023-01-13T06:37:54.328Z,3.10
2023-01-13T06:40:21.045Z,3.38
2023-01-13T06:43:06.030Z,2.78
2023-01-13T06:45:32.490Z,3.28
2023-01-13T06:47:59.788Z,2.80
2023-01-13T06:50:27.095Z,2.83
2023-01-13T06:52:53.497Z,2.38
2023-01-13T06:55:20.111Z,2.60
2023-01-13T06:57:53.849Z,2.50
2023-01-13T07:00:21.504Z,2.10
2023-01-13T07:02:48.668Z,2.58
2023-01-13T07:05:16.254Z,2.55
2023-01-13T07:07:42.936Z,3.00
2023-01-13T07:10:12.983Z,2.65
2023-01-13T07:12:58.885Z,2.90
2023-01-13T07:15:26.606Z,2.33
2023-01-13T07:17:53.266Z,3.47
2023-01-13T07:20:19.774Z,2.50
2023-01-13T07:22:46.213Z,2.53
2023-01-13T07:25:12.648Z,2.85
2023-01-13T07:27:39.268Z,2.92
2023-01-13T07:30:06.345Z,2.72
2023-01-13T07:32:33.507Z,2.40
2023-01-13T07:35:05.161Z,2.72
2023-01-13T07:37:36.380Z,3.05
2023-01-13T07:40:04.720Z,2.05
2023-01-13T07:42:49.578Z,2.50
2023-01-13T07:45:15.984Z,2.60
2023-01-13T07:47:42.381Z,3.58
2023-01-13T07:50:09.615Z,2.50
2023-01-13T07:52:35.976Z,2.03
2023-01-13T07:55:02.461Z,3.70
2023-01-13T07:57:29.013Z,2.97
2023-01-13T07:59:55.559Z,2.20
2023-01-13T08:02:22.223Z,2.28
2023-01-13T08:04:48.768Z,2.42
2023-01-13T08:07:15.182Z,2.92
2023-01-13T08:09:41.617Z,3.58
2023-01-13T08:12:26.393Z,2.83
2023-01-13T08:14:53.976Z,3.42
2023-01-13T08:17:20.715Z,3.85
2023-01-13T08:19:47.402Z,2.25
2023-01-13T08:22:13.907Z,2.28
2023-01-13T08:24:40.329Z,1.90
2023-01-13T08:27:06.751Z,2.47
2023-01-13T08:29:33.162Z,2.30
2023-01-13T08:31:59.539Z,2.78
2023-01-13T08:34:25.913Z,2.90
2023-01-13T08:36:52.391Z,2.50
2023-01-13T08:39:18.838Z,2.83
2023-01-13T08:41:58.228Z,2.50
2023-01-13T08:44:26.749Z,2.70
2023-01-13T08:46:53.749Z,3.75
2023-01-13T08:49:20.603Z,3.88
2023-01-13T08:51:46.995Z,3.17
2023-01-13T08:54:13.887Z,2.50
2023-01-13T08:56:42.385Z,2.85
2023-01-13T08:59:13.321Z,3.00
2023-01-13T09:01:40.838Z,2.97
2023-01-13T09:04:12.657Z,2.35
2023-01-13T09:06:39.049Z,2.70
2023-01-13T09:09:05.469Z,3.22
2023-01-13T09:11:53.347Z,3.25
2023-01-13T09:14:24.274Z,2.95
2023-01-13T09:16:50.680Z,2.67
2023-01-13T09:19:17.093Z,2.95
2023-01-13T09:21:43.501Z,5.00
2023-01-13T09:24:09.941Z,2.55
2023-01-13T09:26:37.604Z,2.30
2023-01-13T09:29:04.642Z,2.42
2023-01-13T09:31:34.314Z,2.88
2023-01-13T09:34:23.673Z,2.95
2023-01-13T09:36:50.692Z,3.25
2023-01-13T09:39:17.668Z,2.25
2023-01-13T09:42:05.304Z,2.72
2023-01-13T09:44:47.115Z,2.30
2023-01-13T09:47:24.721Z,3.10
2023-01-13T09:49:51.224Z,3.22
2023-01-13T09:52:20.383Z,3.10
2023-01-13T09:54:55.696Z,4.10
2023-01-13T09:57:22.164Z,3.47
2023-01-13T09:59:48.771Z,2.80
2023-01-13T10:02:37.139Z,3.08
2023-01-13T10:05:28.071Z,3.45
2023-01-13T10:07:58.112Z,2.35
2023-01-13T10:10:30.866Z,2.88
2023-01-13T10:13:15.701Z,3.65
2023-01-13T10:16:26.202Z,3.35
2023-01-13T10:19:29.352Z,2.70
2023-01-13T10:22:11.073Z,4.43
2023-01-13T10:24:43.321Z,3.72
2023-01-13T10:29:39.569Z,3.90
2023-01-13T10:32:05.952Z,3.40
2023-01-13T10:34:45.253Z,4.30
2023-01-13T10:37:20.287Z,3.72
2023-01-13T10:39:48.204Z,3.10
2023-01-13T10:42:17.194Z,3.42
2023-01-13T10:44:51.105Z,3.30
2023-01-13T10:47:24.541Z,4.18
2023-01-13T10:50:19.456Z,4.05
2023-01-13T10:53:14.844Z,3.47
2023-01-13T10:55:41.287Z,3.45
2023-01-13T10:58:19.463Z,4.20
2023-01-13T11:00:46.450Z,3.33
2023-01-13T11:03:14.911Z,3.42
2023-01-13T11:05:48.403Z,3.55
2023-01-13T11:08:22.886Z,3.42
2023-01-13T11:10:51.561Z,4.05
2023-01-13T11:13:28.428Z,4.15
2023-01-13T11:16:00.185Z,4.07
2023-01-13T11:18:36.449Z,3.47
2023-01-13T11:21:06.575Z,4.35
2023-01-13T11:23:39.963Z,4.10
2023-01-13T11:26:14.880Z,6.53
2023-01-13T11:28:50.917Z,3.85
2023-01-13T11:31:29.462Z,3.00
2023-01-13T11:34:19.041Z,3.47
2023-01-13T11:36:51.789Z,3.53
2023-01-13T11:39:24.412Z,3.78
2023-01-13T11:42:16.372Z,3.35
2023-01-13T11:45:04.498Z,3.70
2023-01-13T11:47:31.931Z,3.20
2023-01-13T11:49:58.513Z,3.20
2023-01-13T11:52:51.779Z,3.60
2023-01-13T11:55:33.315Z,2.83
2023-01-13T11:58:03.724Z,3.65
2023-01-13T12:00:49.183Z,3.85
2023-01-13T12:03:49.798Z,2.80
2023-01-13T12:06:18.874Z,3.30
2023-01-13T12:09:00.682Z,3.67
2023-01-13T12:11:32.583Z,4.60
2023-01-13T12:13:58.893Z,4.32
2023-01-13T12:16:27.016Z,3.85
2023-01-13T12:19:30.493Z,3.22
2023-01-13T12:22:02.384Z,3.08
2023-01-13T12:24:38.028Z,3.30
2023-01-13T12:27:11.926Z,3.80
2023-01-13T12:29:39.158Z,3.40
2023-01-13T12:32:10.847Z,3.88
2023-01-13T12:34:47.626Z,3.70
2023-01-13T12:37:27.534Z,3.88
2023-01-13T12:40:13.494Z,3.78
2023-01-13T12:43:04.553Z,11.27
2023-01-13T12:45:33.024Z,9.52
2023-01-13T12:47:59.920Z,3.03
2023-01-13T12:50:26.303Z,2.97
2023-01-13T12:52:54.856Z,3.30
2023-01-13T12:55:28.674Z,5.78
2023-01-13T12:57:59.930Z,4.07
2023-01-13T13:00:57.778Z,3.90
2023-01-13T13:03:29.150Z,4.28
2023-01-13T13:06:06.018Z,4.10
2023-01-13T13:08:46.755Z,4.65
2023-01-13T13:11:32.991Z,4.05
2023-01-13T13:14:01.411Z,3.10
2023-01-13T13:16:29.299Z,4.45
2023-01-13T13:19:19.259Z,3.58
2023-01-13T13:22:17.897Z,5.05
2023-01-13T13:25:04.272Z,3.45
2023-01-13T13:27:47.449Z,3.13
2023-01-13T13:30:18.353Z,4.75
2023-01-13T13:33:06.007Z,2.83
2023-01-13T13:36:07.224Z,3.72
2023-01-13T13:39:10.591Z,3.25
2023-01-13T13:42:01.714Z,3.60
2023-01-13T13:44:51.648Z,2.97
2023-01-13T13:47:18.164Z,2.95
2023-01-13T13:49:50.045Z,3.75
2023-01-13T13:52:31.428Z,3.08
2023-01-13T13:55:08.690Z,3.63
2023-01-13T13:57:39.533Z,2.63
2023-01-13T14:00:19.680Z,3.80
2023-01-13T14:02:54.966Z,3.35
2023-01-13T14:05:25.506Z,4.00
2023-01-13T14:08:14.712Z,4.10
2023-01-13T14:10:43.150Z,3.65
2023-01-13T14:13:18.923Z,5.57
2023-01-13T14:15:46.322Z,5.43
2023-01-13T14:18:14.931Z,3.78
2023-01-13T14:20:42.200Z,4.10
2023-01-13T14:23:16.768Z,3.03
2023-01-13T14:25:48.267Z,3.80
2023-01-13T14:28:25.220Z,2.95
2023-01-13T14:30:52.147Z,3.40
2023-01-13T14:33:23.554Z,3.25
2023-01-13T14:36:13.932Z,5.43
2023-01-13T14:38:41.510Z,5.78
2023-01-13T14:41:18.128Z,3.97
2023-01-13T14:43:45.712Z,3.95
2023-01-13T14:46:13.099Z,6.00
2023-01-13T14:48:40.930Z,4.05
2023-01-13T14:51:10.753Z,4.00
2023-01-13T14:53:46.418Z,4.25
2023-01-13T14:56:36.132Z,4.35
2023-01-13T14:59:42.264Z,3.95
2023-01-13T15:02:34.805Z,5.63
2023-01-13T15:08:09.814Z,4.95
2023-01-13T15:10:44.816Z,4.05
2023-01-13T15:13:24.972Z,4.15
2023-01-13T15:15:55.499Z,5.05
2023-01-13T15:18:21.893Z,4.38
2023-01-13T15:20:50.715Z,3.70
2023-01-13T15:23:18.358Z,4.55
2023-01-13T15:25:45.575Z,5.13
2023-01-13T15:28:32.221Z,5.43
2023-01-13T15:31:01.556Z,6.50
2023-01-13T15:33:27.982Z,5.38
2023-01-13T15:35:54.685Z,4.00
2023-01-13T15:38:22.907Z,4.88
2023-01-13T15:40:50.840Z,4.82
2023-01-13T15:43:38.343Z,5.57
2023-01-13T15:46:41.936Z,5.55
2023-01-13T15:49:20.683Z,8.15
2023-01-13T15:51:48.725Z,5.45
2023-01-13T15:54:15.833Z,5.68
2023-01-13T15:56:42.317Z,6.40
2023-01-13T15:59:21.242Z,6.82
2023-01-13T16:01:47.861Z,7.00
2023-01-13T16:04:14.345Z,8.95
2023-01-13T16:06:41.101Z,6.40
2023-01-13T16:09:07.649Z,6.30
2023-01-13T16:11:34.152Z,5.30
2023-01-13T16:14:00.654Z,6.65
2023-01-13T16:16:28.514Z,5.90
2023-01-13T16:18:55.100Z,6.65
2023-01-13T16:21:24.369Z,6.20
2023-01-13T16:23:51.560Z,5.60
2023-01-13T16:26:26.356Z,5.93
2023-01-13T16:28:54.323Z,4.90
2023-01-13T16:31:29.065Z,5.75
2023-01-13T16:33:55.572Z,5.35
2023-01-13T16:36:22.260Z,4.80
2023-01-13T16:38:50.209Z,4.63
2023-01-13T16:41:16.922Z,4.50
2023-01-13T16:43:43.436Z,4.32
2023-01-13T16:46:21.151Z,5.13
2023-01-13T16:48:48.258Z,4.05
2023-01-13T16:51:14.714Z,4.82
2023-01-13T16:53:41.212Z,4.72
2023-01-13T16:56:20.770Z,4.70
2023-01-13T16:58:47.367Z,4.22
2023-01-13T17:01:26.088Z,4.00
2023-01-13T17:03:53.172Z,5.32
2023-01-13T17:06:22.934Z,3.80
2023-01-13T17:08:49.312Z,3.65
2023-01-13T17:11:15.881Z,3.85
2023-01-13T17:13:42.349Z,4.03
2023-01-13T17:16:16.076Z,4.28
2023-01-13T17:18:42.600Z,4.70
2023-01-13T17:21:08.971Z,4.18
2023-01-13T17:23:35.441Z,4.85
2023-01-13T17:26:02.027Z,3.80
2023-01-13T17:28:28.430Z,3.60
2023-01-13T17:30:54.801Z,4.30
2023-01-13T17:33:21.262Z,5.10
2023-01-13T17:35:47.648Z,4.45
2023-01-13T17:38:14.007Z,4.07
2023-01-13T17:40:40.384Z,4.50
2023-01-13T17:43:06.791Z,4.03
2023-01-13T17:45:33.279Z,4.00
2023-01-13T17:47:59.963Z,4.50
2023-01-13T17:50:30.962Z,4.10
2023-01-13T17:52:57.362Z,4.43
2023-01-13T17:55:23.740Z,3.53
2023-01-13T17:57:50.120Z,4.20
2023-01-13T18:00:16.772Z,4.78
2023-01-13T18:02:43.193Z,3.10
2023-01-13T18:05:09.786Z,4.25
2023-01-13T18:07:36.217Z,4.47
2023-01-13T18:10:02.584Z,3.72
2023-01-13T18:12:28.954Z,3.85
2023-01-13T18:14:55.347Z,4.43
2023-01-13T18:17:21.724Z,5.05
2023-01-13T18:20:06.712Z,4.70
2023-01-13T18:22:51.558Z,4.13
2023-01-13T18:25:36.504Z,3.42
2023-01-13T18:28:03.615Z,4.72
2023-01-13T18:30:29.996Z,3.90
2023-01-13T18:32:56.980Z,3.88
2023-01-13T18:35:23.415Z,5.65
2023-01-13T18:37:49.776Z,4.35
2023-01-13T18:40:16.431Z,5.10
2023-01-13T18:42:51.778Z,5.32
2023-01-13T18:45:20.637Z,5.80
2023-01-13T18:47:47.032Z,5.78
2023-01-13T18:50:13.856Z,4.75
2023-01-13T18:52:41.209Z,7.00
2023-01-13T18:55:07.950Z,7.03
2023-01-13T18:57:38.842Z,7.13
2023-01-13T19:00:06.054Z,5.30
2023-01-13T19:02:32.444Z,6.25
2023-01-13T19:04:58.817Z,4.85
2023-01-13T19:07:28.480Z,5.72
2023-01-13T19:09:56.038Z,4.93
2023-01-13T19:12:26.200Z,4.82
2023-01-13T19:14:54.279Z,5.07
2023-01-13T19:17:21.803Z,4.47
2023-01-13T19:19:50.833Z,4.32
2023-01-13T19:22:24.025Z,4.65
2023-01-13T19:24:50.707Z,4.88
2023-01-13T19:27:18.472Z,3.95
2023-01-13T19:29:52.130Z,4.32
2023-01-13T19:32:20.677Z,5.95
2023-01-13T19:34:49.310Z,4.82
2023-01-13T19:37:15.721Z,4.40
2023-01-13T19:39:42.298Z,4.43
2023-01-13T19:42:31.791Z,4.40
2023-01-13T19:45:16.726Z,4.50
2023-01-13T19:47:45.280Z,5.80
2023-01-13T19:50:12.208Z,4.82
2023-01-13T19:52:38.638Z,5.13
2023-01-13T19:55:05.356Z,4.45
2023-01-13T19:57:31.832Z,4.30
2023-01-13T19:59:58.264Z,5.68
2023-01-13T20:02:28.136Z,5.25
2023-01-13T20:04:56.058Z,4.72
2023-01-13T20:07:24.295Z,5.07
2023-01-13T20:09:52.189Z,6.97
2023-01-13T20:12:19.987Z,5.18
2023-01-13T20:14:49.929Z,5.10
2023-01-13T20:17:17.805Z,5.53
2023-01-13T20:19:44.449Z,5.65
2023-01-13T20:22:11.840Z,6.00
2023-01-13T20:24:38.477Z,5.15
2023-01-13T20:27:05.830Z,6.32
2023-01-13T20:29:32.872Z,4.47
2023-01-13T20:31:59.370Z,5.22
2023-01-13T20:34:25.887Z,4.63
2023-01-13T20:36:52.360Z,5.28
2023-01-13T20:39:22.137Z,4.22
2023-01-13T20:42:07.164Z,5.38
2023-01-13T20:44:33.917Z,5.60
2023-01-13T20:47:00.337Z,5.15
2023-01-13T20:49:27.800Z,4.60
2023-01-13T20:51:54.992Z,4.78
2023-01-13T20:54:22.141Z,3.75
2023-01-13T20:56:49.095Z,4.63
2023-01-13T20:59:15.526Z,4.97
2023-01-13T21:01:42.391Z,4.95
2023-01-13T21:04:09.228Z,5.07
2023-01-13T21:06:36.068Z,4.00
2023-01-13T21:09:02.889Z,3.63
2023-01-13T21:11:47.984Z,4.82
2023-01-13T21:14:39.047Z,3.53
2023-01-13T21:17:05.939Z,3.45
2023-01-13T21:19:32.436Z,4.28
2023-01-13T21:21:58.840Z,3.97
2023-01-13T21:24:25.681Z,4.68
2023-01-13T21:26:55.740Z,4.47
2023-01-13T21:29:22.945Z,4.93
2023-01-13T21:31:49.405Z,5.30
2023-01-13T21:34:15.847Z,5.43
2023-01-13T21:36:42.293Z,4.30
2023-01-13T21:39:09.227Z,2.80
2023-01-13T21:41:54.186Z,4.47
2023-01-13T21:44:50.328Z,3.58
2023-01-13T21:47:36.619Z,4.20
2023-01-13T21:50:03.971Z,5.03
2023-01-13T21:52:30.393Z,3.83
2023-01-13T21:55:15.121Z,4.88
2023-01-13T21:57:44.719Z,4.53
2023-01-13T22:00:11.783Z,5.55
2023-01-13T22:02:38.321Z,4.10
2023-01-13T22:05:06.507Z,4.28
2023-01-13T22:07:34.419Z,4.25
2023-01-13T22:10:01.167Z,4.40
2023-01-13T22:12:27.870Z,4.43
2023-01-13T22:14:54.873Z,4.55
2023-01-13T22:17:23.292Z,4.72
2023-01-13T22:19:52.728Z,4.40
2023-01-13T22:22:20.832Z,4.55
2023-01-13T22:24:49.138Z,3.95
2023-01-13T22:27:24.517Z,4.78
2023-01-13T22:29:52.381Z,4.05
2023-01-13T22:32:20.647Z,4.40
2023-01-13T22:34:47.560Z,4.50
2023-01-13T22:37:14.099Z,3.85
2023-01-13T22:39:40.629Z,5.63
2023-01-13T22:42:07.482Z,5.22
2023-01-13T22:44:34.006Z,5.13
2023-01-13T22:47:00.459Z,4.88
2023-01-13T22:49:26.866Z,4.68
2023-01-13T22:51:53.331Z,4.50
2023-01-13T22:54:19.699Z,5.15
2023-01-13T22:56:46.129Z,4.50
2023-01-13T22:59:13.559Z,4.78
2023-01-13T23:01:41.988Z,4.82
2023-01-13T23:04:11.915Z,4.63
2023-01-13T23:06:38.616Z,4.60
2023-01-13T23:09:05.151Z,5.15
2023-01-13T23:11:31.676Z,4.93
2023-01-13T23:13:59.825Z,4.78
2023-01-13T23:16:26.906Z,5.30
2023-01-13T23:18:53.377Z,6.32
2023-01-13T23:21:23.176Z,5.22
2023-01-13T23:23:50.268Z,6.25
2023-01-13T23:26:16.706Z,5.20
2023-01-13T23:28:43.127Z,5.45
2023-01-13T23:31:14.737Z,5.97
2023-01-13T23:33:41.397Z,4.90
2023-01-13T23:36:09.174Z,6.05
2023-01-13T23:38:35.549Z,6.40
2023-01-13T23:41:05.549Z,5.82
2023-01-13T23:43:31.930Z,4.90
2023-01-13T23:46:03.421Z,5.35
2023-01-13T23:48:29.965Z,5.75
2023-01-13T23:50:58.062Z,5.63
2023-01-13T23:53:24.661Z,6.53
2023-01-13T23:55:56.710Z,6.22
2023-01-13T23:58:23.140Z,5.80
